Time;durP1;ratioP1;P1;durP2;ratioP2;P2;SDS_P1;SDS_P2;PMS_P1;PMS_P2;Temp;Humidity;BMP_temperature;BMP_pressure;BME280_temperature;BME280_humidity;BME280_pressure;Samples;Min_cycle;Max_cycle;Signal;HPM_P1;HPM_P2
2023/04/24 00:00:01;;;;;;;;;;;11.90;99.90;;;;;;5035792;28;19920;-60
2023/04/24 00:02:26;;;;;;;;;;;11.80;99.90;;;;;;5038189;28;19917;-58
2023/04/24 00:04:52;;;;;;;;;;;11.80;99.90;;;;;;5037042;28;19921;-60
2023/04/24 00:07:17;;;;;;;;;;;11.80;99.90;;;;;;5036477;28;19924;-61
2023/04/24 00:09:43;;;;;;;;;;;11.90;99.90;;;;;;5034860;28;20008;-60
2023/04/24 00:12:09;;;;;;;;;;;11.90;99.90;;;;;;5037087;28;19919;-59
2023/04/24 00:14:35;;;;;;;;;;;11.90;99.90;;;;;;5034677;28;20618;-59
2023/04/24 00:17:01;;;;;;;;;;;11.90;99.90;;;;;;5035767;28;19912;-61
2023/04/24 00:19:26;;;;;;;;;;;11.90;99.90;;;;;;5043410;28;19913;-60
2023/04/24 00:21:52;;;;;;;;;;;11.90;99.90;;;;;;5038491;28;19920;-61
2023/04/24 00:24:18;;;;;;;;;;;11.90;99.90;;;;;;5031572;28;19914;-59
2023/04/24 00:26:43;;;;;;;;;;;11.80;99.90;;;;;;5031838;28;19924;-60
2023/04/24 00:29:09;;;;;;;;;;;11.70;99.90;;;;;;5028847;28;19991;-58
2023/04/24 00:31:34;;;;;;;;;;;11.70;99.90;;;;;;5033963;28;20015;-61
2023/04/24 00:34:01;;;;;;;;;;;11.70;99.90;;;;;;5036724;28;19982;-60
2023/04/24 00:36:26;;;;;;;;;;;11.70;99.90;;;;;;5031802;28;19920;-62
2023/04/24 00:38:52;;;;;;;;;;;11.70;99.90;;;;;;5030870;28;19921;-61
2023/04/24 00:41:18;;;;;;;;;;;11.80;99.90;;;;;;5040795;28;19967;-61
2023/04/24 00:43:44;;;;;;;;;;;11.80;99.90;;;;;;5032748;28;19955;-61
2023/04/24 00:46:10;;;;;;;;;;;11.90;99.90;;;;;;5039809;28;19963;-60
2023/04/24 00:48:37;;;;;;;;;;;11.90;99.90;;;;;;5031711;28;19913;-58
2023/04/24 00:51:02;;;;;;;;;;;11.90;99.90;;;;;;5035788;28;19917;-60
2023/04/24 00:53:28;;;;;;;;;;;11.90;99.90;;;;;;5034668;28;20287;-59
2023/04/24 00:55:53;;;;;;;;;;;11.90;99.90;;;;;;5036470;28;19928;-59
2023/04/24 00:58:19;;;;;;;;;;;11.90;99.90;;;;;;5037514;28;19919;-60
2023/04/24 01:00:45;;;;;;;;;;;11.90;99.90;;;;;;5040540;28;19920;-58
2023/04/24 01:03:10;;;;;;;;;;;11.90;99.90;;;;;;5027828;28;19974;-60
2023/04/24 01:05:36;;;;;;;;;;;11.90;99.90;;;;;;5034726;28;20291;-58
2023/04/24 01:08:02;;;;;;;;;;;12.00;99.90;;;;;;5035956;28;19917;-57
2023/04/24 01:10:29;;;;;;;;;;;11.90;99.90;;;;;;5036171;28;19920;-57
2023/04/24 01:12:55;;;;;;;;;;;11.90;99.90;;;;;;5038392;28;19917;-58
2023/04/24 01:15:20;;;;;;;;;;;11.90;99.90;;;;;;5037146;28;20395;-60
2023/04/24 01:17:46;;;;;;;;;;;11.90;99.90;;;;;;5037766;28;19913;-60
2023/04/24 01:20:12;;;;;;;;;;;11.90;99.90;;;;;;5036998;28;20400;-57
2023/04/24 01:22:38;;;;;;;;;;;11.90;99.90;;;;;;5034000;28;19914;-62
2023/04/24 01:25:03;;;;;;;;;;;11.90;99.90;;;;;;5030794;28;20302;-61
2023/04/24 01:27:29;;;;;;;;;;;11.80;99.90;;;;;;5035949;28;20010;-60
2023/04/24 01:29:54;;;;;;;;;;;11.80;99.90;;;;;;5034957;28;20054;-59
2023/04/24 01:32:20;;;;;;;;;;;11.70;99.90;;;;;;5034578;28;19913;-60
2023/04/24 01:34:46;;;;;;;;;;;11.70;99.90;;;;;;5035761;28;19912;-59
2023/04/24 01:37:12;;;;;;;;;;;11.70;99.90;;;;;;5040533;28;19996;-59
2023/04/24 01:39:37;;;;;;;;;;;11.70;99.90;;;;;;5035649;28;20058;-60
2023/04/24 01:42:04;;;;;;;;;;;11.60;99.90;;;;;;5041050;28;19971;-61
2023/04/24 01:44:30;;;;;;;;;;;11.60;99.90;;;;;;5029628;28;19979;-65
2023/04/24 01:46:55;;;;;;;;;;;11.50;99.90;;;;;;5035553;28;19921;-59
2023/04/24 01:49:21;;;;;;;;;;;11.50;99.90;;;;;;5029095;28;20238;-61
2023/04/24 01:51:46;;;;;;;;;;;11.30;99.90;;;;;;5031129;28;19913;-60
2023/04/24 01:54:12;;;;;;;;;;;11.30;99.90;;;;;;5027412;28;19917;-62
2023/04/24 01:56:40;;;;;;;;;;;11.30;99.90;;;;;;5033825;28;19914;-59
2023/04/24 01:59:05;;;;;;;;;;;11.20;99.90;;;;;;5031050;28;19927;-61
2023/04/24 02:01:37;;;;;;;;;;;11.00;99.90;;;;;;5033862;28;19913;-60
2023/04/24 02:04:03;;;;;;;;;;;11.00;99.90;;;;;;5040887;28;19928;-58
2023/04/24 02:06:30;;;;;;;;;;;10.90;99.90;;;;;;5037669;28;19917;-58
2023/04/24 02:08:56;;;;;;;;;;;10.80;99.90;;;;;;5036149;28;20382;-58
2023/04/24 02:11:22;;;;;;;;;;;10.80;99.90;;;;;;5029908;28;20365;-59
2023/04/24 02:13:47;;;;;;;;;;;10.70;99.90;;;;;;5035386;28;20012;-57
2023/04/24 02:16:13;;;;;;;;;;;10.70;99.90;;;;;;5036537;28;20430;-60
2023/04/24 02:18:38;;;;;;;;;;;10.60;99.90;;;;;;5035168;28;21455;-60
2023/04/24 02:21:04;;;;;;;;;;;10.50;99.90;;;;;;5038424;28;19921;-56
2023/04/24 02:23:29;;;;;;;;;;;10.30;99.90;;;;;;5031617;28;19936;-58
2023/04/24 02:25:55;;;;;;;;;;;10.30;99.90;;;;;;5034434;28;20043;-57
2023/04/24 02:28:21;;;;;;;;;;;10.30;99.90;;;;;;5033825;28;19961;-60
2023/04/24 02:30:46;;;;;;;;;;;10.20;99.90;;;;;;5037774;28;20401;-57
2023/04/24 02:33:11;;;;;;;;;;;10.20;99.90;;;;;;5035859;28;19929;-57
2023/04/24 02:35:37;;;;;;;;;;;10.20;99.90;;;;;;5036268;28;19922;-58
2023/04/24 02:38:03;;;;;;;;;;;10.20;99.90;;;;;;5037842;28;19944;-56
2023/04/24 02:40:29;;;;;;;;;;;10.10;99.90;;;;;;5033372;28;19992;-57
2023/04/24 02:42:54;;;;;;;;;;;10.10;99.90;;;;;;5037657;28;19999;-58
2023/04/24 02:45:20;;;;;;;;;;;10.10;99.90;;;;;;5032470;28;19921;-58
2023/04/24 02:47:45;;;;;;;;;;;10.10;99.90;;;;;;5036623;28;19923;-55
2023/04/24 02:50:11;;;;;;;;;;;10.10;99.90;;;;;;5034570;28;20322;-58
2023/04/24 02:52:36;;;;;;;;;;;10.20;99.90;;;;;;5038035;28;19919;-60
2023/04/24 02:55:02;;;;;;;;;;;10.20;99.90;;;;;;5038679;28;19913;-58
2023/04/24 02:57:27;;;;;;;;;;;10.20;99.90;;;;;;5030015;28;19913;-59
2023/04/24 02:59:53;;;;;;;;;;;10.20;99.90;;;;;;5031185;28;19919;-58
2023/04/24 03:02:18;;;;;;;;;;;10.20;99.90;;;;;;5035678;28;19912;-59
2023/04/24 03:04:44;;;;;;;;;;;10.20;99.90;;;;;;5036251;28;19913;-61
2023/04/24 03:07:09;;;;;;;;;;;10.30;99.90;;;;;;5037752;28;20009;-60
2023/04/24 03:09:34;;;;;;;;;;;10.30;99.90;;;;;;5042101;28;20367;-60
2023/04/24 03:12:00;;;;;;;;;;;10.30;99.90;;;;;;5033558;28;19913;-60
2023/04/24 03:14:25;;;;;;;;;;;10.30;99.90;;;;;;5033910;28;19912;-60
2023/04/24 03:16:51;;;;;;;;;;;10.20;99.90;;;;;;5033205;28;20008;-59
2023/04/24 03:19:16;;;;;;;;;;;10.20;99.90;;;;;;5034246;28;19945;-59
2023/04/24 03:21:42;;;;;;;;;;;10.10;99.90;;;;;;5040647;28;20421;-59
2023/04/24 03:24:08;;;;;;;;;;;10.10;99.90;;;;;;5043343;28;20425;-58
2023/04/24 03:26:33;;;;;;;;;;;10.10;99.90;;;;;;5042143;28;19916;-58
2023/04/24 03:28:59;;;;;;;;;;;10.00;99.90;;;;;;5041913;28;19959;-58
2023/04/24 03:31:24;;;;;;;;;;;9.90;99.90;;;;;;5038019;28;20003;-61
2023/04/24 03:33:50;;;;;;;;;;;9.90;99.90;;;;;;5040670;28;19921;-58
2023/04/24 03:36:17;;;;;;;;;;;9.90;99.90;;;;;;5038310;28;20007;-59
2023/04/24 03:38:42;;;;;;;;;;;9.90;99.90;;;;;;5041981;28;19913;-60
2023/04/24 03:41:07;;;;;;;;;;;9.80;99.90;;;;;;5037896;28;19939;-57
2023/04/24 03:43:34;;;;;;;;;;;9.80;99.90;;;;;;5038793;28;19913;-61
2023/04/24 03:46:00;;;;;;;;;;;9.80;99.90;;;;;;5046212;28;19925;-60
2023/04/24 03:48:25;;;;;;;;;;;9.70;99.90;;;;;;5036440;28;19917;-61
2023/04/24 03:50:51;;;;;;;;;;;9.70;99.90;;;;;;5041162;28;19913;-59
2023/04/24 03:53:16;;;;;;;;;;;9.70;99.90;;;;;;5034297;28;19910;-60
2023/04/24 03:55:41;;;;;;;;;;;9.60;99.90;;;;;;5043676;28;19963;-57
2023/04/24 03:58:07;;;;;;;;;;;9.60;99.90;;;;;;5038310;28;19917;-60
2023/04/24 04:00:33;;;;;;;;;;;9.50;99.90;;;;;;5040740;28;20429;-62
2023/04/24 04:02:58;;;;;;;;;;;9.60;99.90;;;;;;5038975;28;19970;-56
2023/04/24 04:05:24;;;;;;;;;;;9.60;99.90;;;;;;5040263;28;19960;-58
2023/04/24 04:07:49;;;;;;;;;;;9.70;99.90;;;;;;5036869;28;19917;-58
2023/04/24 04:10:15;;;;;;;;;;;9.70;99.90;;;;;;5041144;28;19924;-60
2023/04/24 04:12:40;;;;;;;;;;;9.70;99.90;;;;;;5033407;28;20071;-58
2023/04/24 04:15:06;;;;;;;;;;;9.80;99.90;;;;;;5033082;28;19999;-60
2023/04/24 04:17:32;;;;;;;;;;;9.80;99.90;;;;;;5029073;28;20070;-59
2023/04/24 04:19:57;;;;;;;;;;;9.80;99.90;;;;;;5031356;28;19991;-60
2023/04/24 04:22:23;;;;;;;;;;;9.70;99.90;;;;;;5029646;28;19934;-60
2023/04/24 04:24:50;;;;;;;;;;;9.70;99.90;;;;;;5041422;28;19913;-59
2023/04/24 04:27:16;;;;;;;;;;;9.70;99.90;;;;;;5042090;28;19940;-60
2023/04/24 04:29:41;;;;;;;;;;;9.70;99.90;;;;;;5033794;28;20363;-62
2023/04/24 04:32:07;;;;;;;;;;;9.70;99.90;;;;;;5036494;28;19913;-57
2023/04/24 04:34:33;;;;;;;;;;;9.80;99.90;;;;;;5040961;28;19917;-62
2023/04/24 04:37:01;;;;;;;;;;;9.80;99.90;;;;;;5037222;28;19921;-59
2023/04/24 04:39:28;;;;;;;;;;;9.90;99.90;;;;;;5036551;28;20056;-58
2023/04/24 04:41:53;;;;;;;;;;;9.90;99.90;;;;;;5035397;28;19928;-61
2023/04/24 04:44:19;;;;;;;;;;;9.80;99.90;;;;;;5030429;28;19913;-57
2023/04/24 04:46:44;;;;;;;;;;;9.80;99.90;;;;;;5035946;28;20062;-61
2023/04/24 04:49:10;;;;;;;;;;;9.80;99.90;;;;;;5038289;28;20008;-57
2023/04/24 04:51:36;;;;;;;;;;;9.80;99.90;;;;;;5029048;28;19917;-57
2023/04/24 04:54:01;;;;;;;;;;;9.90;99.90;;;;;;5034309;28;19925;-60
2023/04/24 04:56:27;;;;;;;;;;;9.90;99.90;;;;;;5031028;28;19928;-59
2023/04/24 04:58:53;;;;;;;;;;;9.90;99.90;;;;;;5030485;28;19921;-60
2023/04/24 05:01:18;;;;;;;;;;;9.90;99.90;;;;;;5031874;28;19921;-60
2023/04/24 05:03:44;;;;;;;;;;;10.00;99.90;;;;;;5031185;28;19924;-60
2023/04/24 05:06:09;;;;;;;;;;;10.00;99.90;;;;;;5042849;28;19924;-60
2023/04/24 05:08:35;;;;;;;;;;;10.00;99.90;;;;;;5044587;28;19912;-60
2023/04/24 05:11:00;;;;;;;;;;;10.00;99.90;;;;;;5041352;28;19920;-61
2023/04/24 05:13:26;;;;;;;;;;;10.00;99.90;;;;;;5037663;28;19928;-60
2023/04/24 05:15:51;;;;;;;;;;;10.00;99.90;;;;;;5035339;28;19925;-58
2023/04/24 05:18:17;;;;;;;;;;;10.00;99.90;;;;;;5037654;28;19913;-59
2023/04/24 05:20:43;;;;;;;;;;;10.00;99.90;;;;;;5042031;28;20326;-60
2023/04/24 05:23:09;;;;;;;;;;;10.00;99.90;;;;;;5034256;28;19935;-61
2023/04/24 05:25:35;;;;;;;;;;;10.00;99.90;;;;;;5033001;28;19913;-60
2023/04/24 05:28:01;;;;;;;;;;;10.00;99.90;;;;;;5036616;28;20350;-60
2023/04/24 05:30:27;;;;;;;;;;;10.00;99.90;;;;;;5041258;28;19952;-60
2023/04/24 05:32:52;;;;;;;;;;;10.00;99.90;;;;;;5035057;28;19962;-59
2023/04/24 05:35:18;;;;;;;;;;;10.00;99.90;;;;;;5042376;28;19958;-61
2023/04/24 05:37:44;;;;;;;;;;;10.00;99.90;;;;;;5036415;28;19978;-61
2023/04/24 05:40:10;;;;;;;;;;;10.00;99.90;;;;;;5039363;28;19917;-61
2023/04/24 05:42:35;;;;;;;;;;;10.00;99.90;;;;;;5036264;28;19952;-61
2023/04/24 05:45:01;;;;;;;;;;;10.00;99.90;;;;;;5041958;28;20288;-61
2023/04/24 05:47:26;;;;;;;;;;;10.00;99.90;;;;;;5037606;28;19917;-61
2023/04/24 05:49:53;;;;;;;;;;;10.00;99.90;;;;;;5040227;28;19917;-60
2023/04/24 05:52:18;;;;;;;;;;;10.10;99.90;;;;;;5042781;28;19928;-61
2023/04/24 05:54:44;;;;;;;;;;;10.00;99.90;;;;;;5043268;28;19913;-59
2023/04/24 05:57:09;;;;;;;;;;;10.00;99.90;;;;;;5040531;28;19982;-57
2023/04/24 05:59:36;;;;;;;;;;;10.00;99.90;;;;;;5039331;28;19913;-58
2023/04/24 06:02:02;;;;;;;;;;;10.10;99.90;;;;;;5034538;28;19924;-60
2023/04/24 06:04:27;;;;;;;;;;;10.10;99.90;;;;;;5039262;28;19913;-60
2023/04/24 06:06:55;;;;;;;;;;;10.10;99.90;;;;;;5037421;28;19921;-59
2023/04/24 06:09:22;;;;;;;;;;;10.10;99.90;;;;;;5038311;28;21443;-58
2023/04/24 06:11:49;;;;;;;;;;;10.10;99.90;;;;;;5039692;28;19963;-60
2023/04/24 06:14:14;;;;;;;;;;;10.10;99.90;;;;;;5040310;28;19917;-58
2023/04/24 06:16:41;;;;;;;;;;;10.00;99.90;;;;;;5039803;28;20393;-60
2023/04/24 06:19:07;;;;;;;;;;;10.10;99.90;;;;;;5040538;28;19921;-59
2023/04/24 06:21:32;;;;;;;;;;;10.10;99.90;;;;;;5032275;28;19963;-60
2023/04/24 06:23:58;;;;;;;;;;;10.10;99.90;;;;;;5034137;28;20375;-60
2023/04/24 06:26:24;;;;;;;;;;;10.10;99.90;;;;;;5039619;28;19913;-59
2023/04/24 06:28:51;;;;;;;;;;;10.00;99.90;;;;;;5042088;28;19931;-60
2023/04/24 06:31:16;;;;;;;;;;;9.90;99.90;;;;;;5034434;28;19920;-60
2023/04/24 06:33:42;;;;;;;;;;;9.90;99.90;;;;;;5034020;28;20521;-60
2023/04/24 06:36:08;;;;;;;;;;;9.90;99.90;;;;;;5041014;28;19913;-60
2023/04/24 06:38:33;;;;;;;;;;;9.90;99.90;;;;;;5038137;28;19943;-60
2023/04/24 06:40:59;;;;;;;;;;;9.80;99.90;;;;;;5036521;28;19948;-59
2023/04/24 06:43:25;;;;;;;;;;;9.70;99.90;;;;;;5038170;28;19917;-60
2023/04/24 06:45:50;;;;;;;;;;;9.60;99.90;;;;;;5034797;28;20429;-58
2023/04/24 06:48:16;;;;;;;;;;;9.50;99.90;;;;;;5032972;28;20333;-59
2023/04/24 06:50:41;;;;;;;;;;;9.50;99.90;;;;;;5039229;28;19920;-59
2023/04/24 06:53:07;;;;;;;;;;;9.40;99.90;;;;;;5037398;28;19920;-60
2023/04/24 06:55:32;;;;;;;;;;;9.30;99.90;;;;;;5039571;28;19927;-61
2023/04/24 06:57:57;;;;;;;;;;;9.30;99.90;;;;;;5036319;28;19917;-60
2023/04/24 07:00:24;;;;;;;;;;;9.30;99.90;;;;;;5039303;28;19917;-58
2023/04/24 07:02:49;;;;;;;;;;;9.20;99.90;;;;;;5034875;28;20299;-60
2023/04/24 07:05:15;;;;;;;;;;;9.20;99.90;;;;;;5032554;28;19913;-61
2023/04/24 07:07:42;;;;;;;;;;;9.10;99.90;;;;;;5035572;28;20008;-61
2023/04/24 07:10:08;;;;;;;;;;;9.10;99.90;;;;;;5038168;28;19913;-59
2023/04/24 07:12:33;;;;;;;;;;;9.10;99.90;;;;;;5036354;28;19979;-60
2023/04/24 07:15:00;;;;;;;;;;;9.10;99.90;;;;;;5042259;28;20357;-59
2023/04/24 07:17:25;;;;;;;;;;;9.10;99.90;;;;;;5033726;28;19927;-60
2023/04/24 07:19:51;;;;;;;;;;;9.10;99.90;;;;;;5038650;28;19917;-61
2023/04/24 07:22:17;;;;;;;;;;;9.10;99.90;;;;;;5031869;28;19920;-60
2023/04/24 07:24:43;;;;;;;;;;;9.00;99.90;;;;;;5041296;28;19967;-57
2023/04/24 07:27:08;;;;;;;;;;;9.10;99.90;;;;;;5031305;28;19966;-60
2023/04/24 07:29:35;;;;;;;;;;;9.00;99.90;;;;;;5038941;28;20292;-60
2023/04/24 07:32:00;;;;;;;;;;;8.90;99.90;;;;;;5031407;28;19948;-60
2023/04/24 07:34:26;;;;;;;;;;;9.00;99.90;;;;;;5040886;28;20379;-60
2023/04/24 07:36:51;;;;;;;;;;;8.80;99.90;;;;;;5032968;28;20438;-60
2023/04/24 07:39:17;;;;;;;;;;;8.80;99.90;;;;;;5033215;28;19917;-60
2023/04/24 07:41:42;;;;;;;;;;;8.80;99.90;;;;;;5033769;28;20003;-62
2023/04/24 07:44:08;;;;;;;;;;;8.70;99.90;;;;;;5041904;28;20080;-61
2023/04/24 07:46:33;;;;;;;;;;;8.60;99.90;;;;;;5034132;28;19963;-63
2023/04/24 07:49:01;;;;;;;;;;;8.60;99.90;;;;;;5042196;28;19928;-61
2023/04/24 07:51:27;;;;;;;;;;;8.50;99.90;;;;;;5034329;28;20398;-61
2023/04/24 07:53:54;;;;;;;;;;;8.40;99.90;;;;;;5038765;28;19979;-62
2023/04/24 07:56:20;;;;;;;;;;;8.30;99.90;;;;;;5038964;28;19917;-62
2023/04/24 07:58:45;;;;;;;;;;;8.20;99.90;;;;;;5041265;28;19923;-60
2023/04/24 08:01:11;;;;;;;;;;;8.10;99.90;;;;;;5034028;28;19960;-62
2023/04/24 08:03:36;;;;;;;;;;;8.00;99.90;;;;;;5039809;28;20016;-63
2023/04/24 08:06:02;;;;;;;;;;;8.00;99.90;;;;;;5038323;28;19917;-62
2023/04/24 08:08:28;;;;;;;;;;;8.00;99.90;;;;;;5041479;28;19913;-63
2023/04/24 08:10:53;;;;;;;;;;;7.90;99.90;;;;;;5038652;28;19921;-64
2023/04/24 08:13:19;;;;;;;;;;;7.90;99.90;;;;;;5038581;28;19913;-64
2023/04/24 08:15:45;;;;;;;;;;;7.90;99.90;;;;;;5037365;28;19920;-64
2023/04/24 08:18:12;;;;;;;;;;;7.90;99.90;;;;;;5039472;28;20276;-64
2023/04/24 08:20:37;;;;;;;;;;;7.90;99.90;;;;;;5042505;28;19913;-62
2023/04/24 08:23:03;;;;;;;;;;;7.80;99.90;;;;;;5041185;28;19930;-64
2023/04/24 08:25:28;;;;;;;;;;;7.80;99.90;;;;;;5033841;28;19917;-62
2023/04/24 08:27:54;;;;;;;;;;;7.80;99.90;;;;;;5041440;28;19927;-64
2023/04/24 08:30:20;;;;;;;;;;;7.70;99.90;;;;;;5041259;28;20343;-63
2023/04/24 08:32:45;;;;;;;;;;;7.60;99.90;;;;;;5040172;28;19913;-63
2023/04/24 08:35:11;;;;;;;;;;;7.40;99.90;;;;;;5042075;28;19908;-66
2023/04/24 08:37:37;;;;;;;;;;;7.30;99.90;;;;;;5032595;28;20573;-65
2023/04/24 08:40:06;;;;;;;;;;;7.30;99.90;;;;;;5038286;28;20004;-65
2023/04/24 08:42:34;;;;;;;;;;;7.30;99.90;;;;;;5031729;28;19921;-65
2023/04/24 08:44:59;;;;;;;;;;;7.20;99.90;;;;;;5045260;28;19999;-66
2023/04/24 08:47:26;;;;;;;;;;;7.30;99.90;;;;;;5035718;28;20013;-65
2023/04/24 08:49:52;;;;;;;;;;;7.30;99.90;;;;;;5047725;28;20346;-65
2023/04/24 08:52:18;;;;;;;;;;;7.30;99.90;;;;;;5043722;28;19919;-65
2023/04/24 08:54:46;;;;;;;;;;;7.30;99.90;;;;;;5039531;28;19924;-65
2023/04/24 08:57:13;;;;;;;;;;;7.30;99.90;;;;;;5035466;28;20290;-66
2023/04/24 08:59:38;;;;;;;;;;;7.30;99.90;;;;;;5043153;28;19956;-65
2023/04/24 09:02:04;;;;;;;;;;;7.40;99.90;;;;;;5039150;28;19959;-66
2023/04/24 09:04:30;;;;;;;;;;;7.40;99.90;;;;;;5041267;28;19914;-67
2023/04/24 09:06:56;;;;;;;;;;;7.40;99.90;;;;;;5039910;28;19917;-66
2023/04/24 09:09:22;;;;;;;;;;;7.40;99.90;;;;;;5041997;28;20395;-65
2023/04/24 09:11:49;;;;;;;;;;;7.50;99.90;;;;;;5041394;28;19928;-65
2023/04/24 09:14:14;;;;;;;;;;;7.50;99.90;;;;;;5040290;28;19966;-65
2023/04/24 09:16:40;;;;;;;;;;;7.50;99.90;;;;;;5035960;28;19914;-66
2023/04/24 09:19:06;;;;;;;;;;;7.50;99.90;;;;;;5034197;28;20004;-64
2023/04/24 09:21:32;;;;;;;;;;;7.60;99.90;;;;;;5039150;28;19921;-65
2023/04/24 09:24:02;;;;;;;;;;;7.60;99.90;;;;;;5037312;28;19920;-66
2023/04/24 09:26:34;;;;;;;;;;;7.70;99.90;;;;;;5038603;28;19913;-65
2023/04/24 09:28:59;;;;;;;;;;;7.70;99.90;;;;;;5041030;28;19927;-64
2023/04/24 09:31:27;;;;;;;;;;;7.80;99.90;;;;;;5037833;28;19925;-64
2023/04/24 09:33:55;;;;;;;;;;;7.90;99.90;;;;;;5041396;28;20016;-65
2023/04/24 09:36:33;;;;;;;;;;;7.90;99.90;;;;;;5035857;28;19920;-64
2023/04/24 09:39:04;;;;;;;;;;;7.90;99.90;;;;;;5035297;28;19916;-65
2023/04/24 09:41:30;;;;;;;;;;;8.00;99.90;;;;;;5036929;28;19913;-61
2023/04/24 09:43:56;;;;;;;;;;;8.00;99.90;;;;;;5039806;28;19920;-62
2023/04/24 09:46:28;;;;;;;;;;;8.10;99.90;;;;;;5039837;28;19955;-62
2023/04/24 09:48:54;;;;;;;;;;;8.10;99.90;;;;;;5035364;28;19920;-64
2023/04/24 09:51:32;;;;;;;;;;;8.10;99.90;;;;;;5036274;28;19963;-63
2023/04/24 09:53:57;;;;;;;;;;;8.20;99.90;;;;;;5035436;28;20729;-63
2023/04/24 09:56:25;;;;;;;;;;;8.30;99.90;;;;;;5034373;28;20015;-63
2023/04/24 09:58:50;;;;;;;;;;;8.30;99.90;;;;;;5035615;28;19959;-63
2023/04/24 10:01:15;;;;;;;;;;;8.40;99.90;;;;;;5042159;28;19916;-63
2023/04/24 10:03:41;;;;;;;;;;;8.40;99.90;;;;;;5036394;28;20651;-62
2023/04/24 10:06:10;;;;;;;;;;;8.50;99.90;;;;;;5042912;28;20586;-65
2023/04/24 10:08:37;;;;;;;;;;;8.60;99.90;;;;;;5036237;28;19913;-66
2023/04/24 10:11:02;;;;;;;;;;;8.60;99.90;;;;;;5039032;28;19928;-65
2023/04/24 10:13:28;;;;;;;;;;;8.60;99.90;;;;;;5034563;28;19917;-66
2023/04/24 10:15:54;;;;;;;;;;;8.60;99.90;;;;;;5041864;28;19960;-64
2023/04/24 10:18:20;;;;;;;;;;;8.70;99.90;;;;;;5031913;28;19919;-65
2023/04/24 10:20:46;;;;;;;;;;;8.80;99.90;;;;;;5043276;28;19913;-64
2023/04/24 10:23:12;;;;;;;;;;;8.80;99.90;;;;;;5038167;28;19958;-64
2023/04/24 10:25:37;;;;;;;;;;;8.80;99.90;;;;;;5034575;28;19913;-64
2023/04/24 10:28:04;;;;;;;;;;;8.80;99.90;;;;;;5036721;28;19921;-63
2023/04/24 10:30:30;;;;;;;;;;;8.90;99.90;;;;;;5038249;28;19917;-64
2023/04/24 10:32:56;;;;;;;;;;;9.00;99.90;;;;;;5036701;28;19999;-64
2023/04/24 10:35:24;;;;;;;;;;;9.00;99.90;;;;;;5040216;28;20347;-64
2023/04/24 10:37:50;;;;;;;;;;;9.10;99.90;;;;;;5038393;28;19920;-64
2023/04/24 10:40:25;;;;;;;;;;;9.10;99.90;;;;;;5040732;28;19913;-66
2023/04/24 10:42:52;;;;;;;;;;;9.10;99.90;;;;;;5042003;28;19913;-62
2023/04/24 10:45:21;;;;;;;;;;;9.10;99.90;;;;;;5036486;28;19967;-64
2023/04/24 10:47:55;;;;;;;;;;;9.20;99.90;;;;;;5037877;28;19917;-64
2023/04/24 10:50:21;;;;;;;;;;;9.30;99.90;;;;;;5039876;28;19954;-64
2023/04/24 10:52:47;;;;;;;;;;;9.40;99.90;;;;;;5033066;28;20452;-64
2023/04/24 10:55:14;;;;;;;;;;;9.60;99.90;;;;;;5034392;28;19913;-64
2023/04/24 10:57:39;;;;;;;;;;;9.70;99.90;;;;;;5040389;28;19915;-64
2023/04/24 11:00:20;;;;;;;;;;;9.70;99.90;;;;;;5039906;28;20386;-64
2023/04/24 11:02:52;;;;;;;;;;;9.80;99.90;;;;;;5043519;28;19924;-63
2023/04/24 11:05:18;;;;;;;;;;;9.90;99.90;;;;;;5033770;28;20442;-64
2023/04/24 11:08:02;;;;;;;;;;;9.80;99.90;;;;;;5040661;28;19925;-63
2023/04/24 11:10:27;;;;;;;;;;;9.60;99.90;;;;;;5036758;28;20422;-63
2023/04/24 11:12:53;;;;;;;;;;;9.60;99.90;;;;;;5043476;28;19921;-64
2023/04/24 11:15:19;;;;;;;;;;;9.70;99.90;;;;;;5032418;28;19921;-63
2023/04/24 11:17:45;;;;;;;;;;;9.70;99.90;;;;;;5042131;28;19920;-64
2023/04/24 11:20:11;;;;;;;;;;;9.80;99.90;;;;;;5036549;28;19995;-63
2023/04/24 11:22:39;;;;;;;;;;;9.90;99.90;;;;;;5040236;28;19956;-64
2023/04/24 11:25:04;;;;;;;;;;;9.80;99.90;;;;;;5032476;28;19925;-64
2023/04/24 11:27:31;;;;;;;;;;;9.80;99.90;;;;;;5035140;28;19923;-64
2023/04/24 11:29:57;;;;;;;;;;;9.80;99.90;;;;;;5039666;28;19920;-63
2023/04/24 11:32:24;;;;;;;;;;;9.80;99.90;;;;;;5044186;28;19921;-64
2023/04/24 11:34:50;;;;;;;;;;;9.70;99.90;;;;;;5040933;28;20001;-63
2023/04/24 11:37:15;;;;;;;;;;;9.70;99.90;;;;;;5043937;28;19917;-64
2023/04/24 11:39:41;;;;;;;;;;;9.60;99.90;;;;;;5040114;28;20375;-63
2023/04/24 11:42:07;;;;;;;;;;;9.60;99.90;;;;;;5039005;28;20406;-63
2023/04/24 11:44:38;;;;;;;;;;;9.70;99.90;;;;;;5039497;28;19913;-63
2023/04/24 11:47:05;;;;;;;;;;;9.80;99.90;;;;;;5030481;28;19920;-63
2023/04/24 11:49:30;;;;;;;;;;;9.90;99.90;;;;;;5037531;28;20387;-64
2023/04/24 11:51:56;;;;;;;;;;;10.00;99.90;;;;;;5038163;28;19963;-64
2023/04/24 11:54:21;;;;;;;;;;;10.20;99.90;;;;;;5041842;28;19983;-63
2023/04/24 11:56:47;;;;;;;;;;;10.40;99.90;;;;;;5036632;28;19928;-63
2023/04/24 11:59:12;;;;;;;;;;;10.30;99.90;;;;;;5040697;28;19920;-64
2023/04/24 12:01:45;;;;;;;;;;;10.30;99.90;;;;;;5040183;28;19917;-63
2023/04/24 12:04:10;;;;;;;;;;;10.70;99.90;;;;;;5043332;28;19916;-64
2023/04/24 12:06:36;;;;;;;;;;;10.90;99.90;;;;;;5040752;28;19917;-64
2023/04/24 12:09:02;;;;;;;;;;;11.10;99.90;;;;;;5036047;28;19916;-62
2023/04/24 12:11:27;;;;;;;;;;;11.10;99.90;;;;;;5036139;28;20003;-63
2023/04/24 12:13:53;;;;;;;;;;;11.20;99.90;;;;;;5034323;28;19975;-61
2023/04/24 12:16:18;;;;;;;;;;;11.20;99.90;;;;;;5036717;28;20031;-60
2023/04/24 12:18:45;;;;;;;;;;;11.30;99.90;;;;;;5038517;28;19920;-61
2023/04/24 12:21:18;;;;;;;;;;;11.30;99.90;;;;;;5036230;28;19921;-61
2023/04/24 12:23:44;;;;;;;;;;;11.20;99.90;;;;;;5038644;28;19924;-61
2023/04/24 12:26:10;;;;;;;;;;;11.10;99.90;;;;;;5038064;28;20276;-61
2023/04/24 12:40:31;;;;;;;13.43;4.45;;;11.00;99.90;;;;;;5071818;27;20417;-61
2023/04/24 12:42:57;;;;;;;14.48;4.82;;;11.80;99.90;;;;;;5044235;28;20067;-59
2023/04/24 12:45:25;;;;;;;15.60;5.00;;;12.20;99.90;;;;;;5040987;28;20041;-59
2023/04/24 12:47:50;;;;;;;13.88;4.50;;;12.50;99.90;;;;;;5044601;28;20018;-60
2023/04/24 12:50:16;;;;;;;13.57;4.40;;;12.60;99.90;;;;;;5043183;28;20139;-60
2023/04/24 12:52:43;;;;;;;11.23;4.38;;;12.30;99.90;;;;;;5044539;28;20029;-63
2023/04/24 12:55:09;;;;;;;15.98;5.72;;;12.10;99.90;;;;;;5041366;28;20109;-58
2023/04/24 12:57:37;;;;;;;10.65;3.60;;;12.10;99.90;;;;;;5044452;28;20034;-60
2023/04/24 13:00:04;;;;;;;18.33;4.35;;;12.10;99.90;;;;;;5041063;28;20037;-60
2023/04/24 13:02:31;;;;;;;12.40;3.92;;;12.30;99.90;;;;;;5043358;28;20033;-57
2023/04/24 13:04:57;;;;;;;11.45;3.97;;;12.30;99.90;;;;;;5045137;28;21347;-60
2023/04/24 13:07:24;;;;;;;14.93;4.47;;;12.30;99.90;;;;;;5039498;28;20021;-58
2023/04/24 13:09:51;;;;;;;14.82;5.20;;;12.60;99.90;;;;;;5044497;28;20045;-60
2023/04/24 13:12:17;;;;;;;11.57;4.75;;;12.80;99.90;;;;;;5043826;28;20025;-61
2023/04/24 13:14:42;;;;;;;13.02;5.30;;;13.00;99.90;;;;;;5040549;28;20055;-62
2023/04/24 13:17:09;;;;;;;10.05;4.60;;;12.80;99.90;;;;;;5042545;28;20025;-59
2023/04/24 13:19:39;;;;;;;19.88;5.97;;;12.70;99.90;;;;;;5040493;28;20215;-57
2023/04/24 13:22:05;;;;;;;15.85;5.45;;;13.10;99.90;;;;;;5043072;28;20594;-57
2023/04/24 13:24:31;;;;;;;12.10;4.85;;;13.00;99.90;;;;;;5044656;28;20103;-59
2023/04/24 13:26:57;;;;;;;16.60;5.13;;;12.90;99.90;;;;;;5042672;28;20037;-60
2023/04/24 13:29:23;;;;;;;14.15;5.38;;;12.80;99.90;;;;;;5038249;28;20111;-60
2023/04/24 13:31:55;;;;;;;16.02;5.47;;;12.60;99.90;;;;;;5043802;28;20025;-59
2023/04/24 13:34:22;;;;;;;12.40;4.82;;;12.70;99.90;;;;;;5043654;28;20018;-56
2023/04/24 13:36:48;;;;;;;13.10;5.18;;;13.10;99.90;;;;;;5043788;28;20032;-57
2023/04/24 13:39:13;;;;;;;13.93;4.45;;;13.40;99.90;;;;;;5038151;28;20039;-57
2023/04/24 13:41:39;;;;;;;13.50;4.55;;;13.20;99.90;;;;;;5025246;28;20087;-58
2023/04/24 13:44:06;;;;;;;14.60;4.75;;;13.60;99.90;;;;;;5024509;28;20046;-59
2023/04/24 13:46:31;;;;;;;15.95;4.30;;;13.80;99.90;;;;;;5029604;28;20025;-58
2023/04/24 13:48:57;;;;;;;13.00;5.35;;;14.00;99.90;;;;;;5029209;28;20037;-61
2023/04/24 13:51:23;;;;;;;15.48;5.03;;;13.90;99.90;;;;;;5028690;28;20065;-59
2023/04/24 13:53:49;;;;;;;16.60;5.80;;;13.70;99.90;;;;;;5027351;28;20080;-57
2023/04/24 13:56:15;;;;;;;16.27;5.95;;;13.70;99.90;;;;;;5025688;28;20026;-58
2023/04/24 13:58:40;;;;;;;10.85;5.03;;;13.30;99.90;;;;;;5028450;28;20038;-58
2023/04/24 14:01:06;;;;;;;19.25;5.35;;;13.00;99.90;;;;;;5021810;28;20109;-59
2023/04/24 14:03:33;;;;;;;13.82;5.85;;;13.10;99.90;;;;;;5029806;28;20400;-62
2023/04/24 14:05:58;;;;;;;18.58;5.55;;;13.20;99.90;;;;;;5037843;28;20033;-59
2023/04/24 14:08:25;;;;;;;8.02;4.68;;;13.40;99.90;;;;;;5031055;28;20038;-60
2023/04/24 14:10:50;;;;;;;15.95;5.43;;;13.50;99.90;;;;;;5027112;28;20026;-59
2023/04/24 14:13:16;;;;;;;13.68;5.78;;;13.30;99.90;;;;;;5026520;28;20503;-59
2023/04/24 14:15:42;;;;;;;11.75;5.13;;;13.20;99.90;;;;;;5029076;28;20608;-58